KRIV/RIV METAR and TAF weather

Enter ICAO airport designator
Station Type Date Time Source
KRIV METAR 2019/11/15 04:58 UTC NOAA

KRIV 150458Z AUTO 00000KT 9SM BKN230 13/13 A3013 RMK AO2 SLP198 T01260126


Station Type Date Time Source
KRIV Decoded METAR 2019/11/15 04:58 UTC NOAA

Riverside / March Air Force Base, CA, United States (KRIV) 33-54N 117-15W 468M
Nov 14, 2019 - 11:58 PM EST / 2019.11.15 0458 UTC
Wind: Calm:0
Visibility: 9 mile(s):0
Sky conditions: mostly cloudy
Temperature: 54.7 F (12.6 C)
Dew Point: 54.7 F (12.6 C)
Relative Humidity: 100%
Pressure (altimeter): 30.13 in. Hg (1020 hPa)
ob: KRIV 150458Z AUTO 00000KT 9SM BKN230 13/13 A3013 RMK AO2 SLP198 T01260126
cycle: 5

Station Type Date Time Source
KRIV TAF 2019/11/15 04:43 UTC NOAA

TAF KRIV 150415Z 1504/1610 VRB03KT 9999 SCT250 QNH3012INS
BECMG 1506/1507 VRB03KT 4800 BR SCT250 QNH3011INS
BECMG 1511/1512 13003KT 1600 BR BKN003 BKN250 QNH3011INS
BECMG 1515/1516 13003KT 4800 BR FEW007 SCT250 QNH3012INS
BECMG 1516/1517 VRB03KT 9999 NSW BKN250 QNH3004INS
BECMG 1520/1521 31009KT 9999 BKN250 QNH3001INS
BECMG 1603/1604 VRB03KT 9999 BKN250 QNH3002INS TX24/1522Z TN06/1514Z

Example: see airport list